sensor_id;sensor_type;location;lat;lon;timestamp;P1;durP1;ratioP1;P2;durP2;ratioP2
4278;SDS011;2153;47.744;10.580;2023-08-06T00:00:19;12.87;;;3.63;;
4278;SDS011;2153;47.744;10.580;2023-08-06T00:02:48;11.70;;;3.00;;
4278;SDS011;2153;47.744;10.580;2023-08-06T00:05:15;14.10;;;3.60;;
4278;SDS011;2153;47.744;10.580;2023-08-06T00:07:43;12.60;;;3.60;;
4278;SDS011;2153;47.744;10.580;2023-08-06T00:10:10;13.40;;;3.60;;
4278;SDS011;2153;47.744;10.580;2023-08-06T00:12:37;13.80;;;3.10;;
4278;SDS011;2153;47.744;10.580;2023-08-06T00:15:04;13.53;;;2.83;;
4278;SDS011;2153;47.744;10.580;2023-08-06T00:17:31;11.63;;;2.67;;
4278;SDS011;2153;47.744;10.580;2023-08-06T00:19:59;12.67;;;2.90;;
4278;SDS011;2153;47.744;10.580;2023-08-06T00:22:29;15.13;;;3.53;;
4278;SDS011;2153;47.744;10.580;2023-08-06T00:24:56;12.93;;;2.60;;
4278;SDS011;2153;47.744;10.580;2023-08-06T00:27:23;11.63;;;2.73;;
4278;SDS011;2153;47.744;10.580;2023-08-06T00:29:49;12.43;;;2.90;;
4278;SDS011;2153;47.744;10.580;2023-08-06T00:32:16;12.13;;;2.60;;
4278;SDS011;2153;47.744;10.580;2023-08-06T00:34:43;11.67;;;2.30;;
4278;SDS011;2153;47.744;10.580;2023-08-06T00:37:11;13.77;;;3.03;;
4278;SDS011;2153;47.744;10.580;2023-08-06T00:39:38;12.20;;;2.93;;
4278;SDS011;2153;47.744;10.580;2023-08-06T00:42:05;13.13;;;3.00;;
4278;SDS011;2153;47.744;10.580;2023-08-06T00:44:31;12.27;;;2.60;;
4278;SDS011;2153;47.744;10.580;2023-08-06T00:46:58;12.57;;;2.53;;
4278;SDS011;2153;47.744;10.580;2023-08-06T00:49:25;11.80;;;2.37;;
4278;SDS011;2153;47.744;10.580;2023-08-06T00:51:52;11.90;;;2.67;;
4278;SDS011;2153;47.744;10.580;2023-08-06T00:54:20;11.27;;;2.20;;
4278;SDS011;2153;47.744;10.580;2023-08-06T00:56:46;12.70;;;2.87;;
4278;SDS011;2153;47.744;10.580;2023-08-06T00:59:13;11.80;;;2.40;;
4278;SDS011;2153;47.744;10.580;2023-08-06T01:01:40;11.93;;;2.60;;
4278;SDS011;2153;47.744;10.580;2023-08-06T01:04:07;15.33;;;3.10;;
4278;SDS011;2153;47.744;10.580;2023-08-06T01:06:35;13.23;;;3.00;;
4278;SDS011;2153;47.744;10.580;2023-08-06T01:09:11;12.10;;;2.53;;
4278;SDS011;2153;47.744;10.580;2023-08-06T01:11:54;17.33;;;2.30;;
4278;SDS011;2153;47.744;10.580;2023-08-06T01:14:29;12.20;;;2.70;;
4278;SDS011;2153;47.744;10.580;2023-08-06T01:16:59;11.43;;;2.13;;
4278;SDS011;2153;47.744;10.580;2023-08-06T01:19:28;12.77;;;2.90;;
4278;SDS011;2153;47.744;10.580;2023-08-06T01:21:56;12.20;;;2.60;;
4278;SDS011;2153;47.744;10.580;2023-08-06T01:24:23;12.43;;;2.30;;
4278;SDS011;2153;47.744;10.580;2023-08-06T01:26:51;12.13;;;2.40;;
4278;SDS011;2153;47.744;10.580;2023-08-06T01:32:10;12.63;;;2.77;;
4278;SDS011;2153;47.744;10.580;2023-08-06T01:34:38;12.37;;;3.10;;
4278;SDS011;2153;47.744;10.580;2023-08-06T01:37:08;11.53;;;2.10;;
4278;SDS011;2153;47.744;10.580;2023-08-06T01:39:37;11.40;;;2.37;;
4278;SDS011;2153;47.744;10.580;2023-08-06T01:42:06;12.80;;;2.80;;
4278;SDS011;2153;47.744;10.580;2023-08-06T01:44:33;12.67;;;2.60;;
4278;SDS011;2153;47.744;10.580;2023-08-06T01:47:00;12.80;;;2.53;;
4278;SDS011;2153;47.744;10.580;2023-08-06T01:49:27;11.20;;;2.20;;
4278;SDS011;2153;47.744;10.580;2023-08-06T01:51:54;12.00;;;2.40;;
4278;SDS011;2153;47.744;10.580;2023-08-06T01:54:22;14.03;;;3.17;;
4278;SDS011;2153;47.744;10.580;2023-08-06T01:56:48;12.40;;;2.70;;
4278;SDS011;2153;47.744;10.580;2023-08-06T01:59:15;13.00;;;3.00;;
4278;SDS011;2153;47.744;10.580;2023-08-06T02:01:42;12.27;;;2.87;;
4278;SDS011;2153;47.744;10.580;2023-08-06T02:04:08;12.90;;;3.10;;
4278;SDS011;2153;47.744;10.580;2023-08-06T02:06:35;11.70;;;2.33;;
4278;SDS011;2153;47.744;10.580;2023-08-06T02:09:02;12.57;;;3.70;;
4278;SDS011;2153;47.744;10.580;2023-08-06T02:11:30;11.93;;;2.70;;
4278;SDS011;2153;47.744;10.580;2023-08-06T02:13:57;12.70;;;3.07;;
4278;SDS011;2153;47.744;10.580;2023-08-06T02:16:23;12.90;;;3.00;;
4278;SDS011;2153;47.744;10.580;2023-08-06T02:18:50;16.80;;;3.17;;
4278;SDS011;2153;47.744;10.580;2023-08-06T02:21:17;12.20;;;2.80;;
4278;SDS011;2153;47.744;10.580;2023-08-06T02:23:43;12.27;;;2.97;;
4278;SDS011;2153;47.744;10.580;2023-08-06T02:26:10;12.40;;;2.87;;
4278;SDS011;2153;47.744;10.580;2023-08-06T02:28:38;13.60;;;3.13;;
4278;SDS011;2153;47.744;10.580;2023-08-06T02:31:05;12.93;;;3.03;;
4278;SDS011;2153;47.744;10.580;2023-08-06T02:33:32;13.67;;;3.57;;
4278;SDS011;2153;47.744;10.580;2023-08-06T02:35:59;12.50;;;3.20;;
4278;SDS011;2153;47.744;10.580;2023-08-06T02:38:27;13.50;;;2.80;;
4278;SDS011;2153;47.744;10.580;2023-08-06T02:40:53;12.73;;;3.30;;
4278;SDS011;2153;47.744;10.580;2023-08-06T02:43:20;15.00;;;2.77;;
4278;SDS011;2153;47.744;10.580;2023-08-06T02:45:48;14.33;;;3.40;;
4278;SDS011;2153;47.744;10.580;2023-08-06T02:48:15;16.73;;;3.20;;
4278;SDS011;2153;47.744;10.580;2023-08-06T02:50:44;13.30;;;3.90;;
4278;SDS011;2153;47.744;10.580;2023-08-06T02:53:11;13.37;;;3.07;;
4278;SDS011;2153;47.744;10.580;2023-08-06T02:55:37;13.67;;;2.90;;
4278;SDS011;2153;47.744;10.580;2023-08-06T02:58:04;12.97;;;2.90;;
4278;SDS011;2153;47.744;10.580;2023-08-06T03:00:30;14.60;;;2.97;;
4278;SDS011;2153;47.744;10.580;2023-08-06T03:02:58;13.43;;;3.00;;
4278;SDS011;2153;47.744;10.580;2023-08-06T03:05:25;12.50;;;3.27;;
4278;SDS011;2153;47.744;10.580;2023-08-06T03:07:52;12.40;;;2.90;;
4278;SDS011;2153;47.744;10.580;2023-08-06T03:10:18;13.00;;;3.17;;
4278;SDS011;2153;47.744;10.580;2023-08-06T03:12:45;13.90;;;2.70;;
4278;SDS011;2153;47.744;10.580;2023-08-06T03:15:12;12.37;;;2.80;;
4278;SDS011;2153;47.744;10.580;2023-08-06T03:17:39;12.07;;;2.87;;
4278;SDS011;2153;47.744;10.580;2023-08-06T03:20:07;12.00;;;2.63;;
4278;SDS011;2153;47.744;10.580;2023-08-06T03:22:35;12.50;;;2.50;;
4278;SDS011;2153;47.744;10.580;2023-08-06T03:25:01;11.73;;;2.60;;
4278;SDS011;2153;47.744;10.580;2023-08-06T03:27:28;12.83;;;2.67;;
4278;SDS011;2153;47.744;10.580;2023-08-06T03:29:55;14.33;;;3.10;;
4278;SDS011;2153;47.744;10.580;2023-08-06T03:32:22;12.00;;;2.40;;
4278;SDS011;2153;47.744;10.580;2023-08-06T03:34:48;11.40;;;2.20;;
4278;SDS011;2153;47.744;10.580;2023-08-06T03:37:16;12.80;;;2.70;;
4278;SDS011;2153;47.744;10.580;2023-08-06T03:39:43;11.37;;;2.20;;
4278;SDS011;2153;47.744;10.580;2023-08-06T03:42:10;12.73;;;3.30;;
4278;SDS011;2153;47.744;10.580;2023-08-06T03:44:37;11.77;;;2.10;;
4278;SDS011;2153;47.744;10.580;2023-08-06T03:47:04;13.23;;;2.93;;
4278;SDS011;2153;47.744;10.580;2023-08-06T03:49:31;12.10;;;2.30;;
4278;SDS011;2153;47.744;10.580;2023-08-06T03:51:58;11.50;;;2.30;;
4278;SDS011;2153;47.744;10.580;2023-08-06T03:54:26;11.40;;;2.20;;
4278;SDS011;2153;47.744;10.580;2023-08-06T03:56:52;12.03;;;2.40;;
4278;SDS011;2153;47.744;10.580;2023-08-06T03:59:19;12.70;;;2.60;;
4278;SDS011;2153;47.744;10.580;2023-08-06T04:01:46;13.17;;;2.40;;
4278;SDS011;2153;47.744;10.580;2023-08-06T04:04:12;12.20;;;2.10;;
4278;SDS011;2153;47.744;10.580;2023-08-06T04:06:39;11.10;;;2.00;;
4278;SDS011;2153;47.744;10.580;2023-08-06T04:09:06;12.80;;;2.50;;
4278;SDS011;2153;47.744;10.580;2023-08-06T04:11:34;12.60;;;2.23;;
4278;SDS011;2153;47.744;10.580;2023-08-06T04:14:01;14.47;;;2.30;;
4278;SDS011;2153;47.744;10.580;2023-08-06T04:16:27;13.83;;;2.93;;
4278;SDS011;2153;47.744;10.580;2023-08-06T04:18:54;17.90;;;2.77;;
4278;SDS011;2153;47.744;10.580;2023-08-06T04:21:21;12.97;;;2.30;;
4278;SDS011;2153;47.744;10.580;2023-08-06T04:23:48;11.20;;;2.37;;
4278;SDS011;2153;47.744;10.580;2023-08-06T04:26:14;13.07;;;2.97;;
4278;SDS011;2153;47.744;10.580;2023-08-06T04:28:42;15.43;;;2.53;;
4278;SDS011;2153;47.744;10.580;2023-08-06T04:31:09;12.47;;;2.47;;
4278;SDS011;2153;47.744;10.580;2023-08-06T04:33:36;11.93;;;2.40;;
4278;SDS011;2153;47.744;10.580;2023-08-06T04:36:03;12.10;;;2.30;;
4278;SDS011;2153;47.744;10.580;2023-08-06T04:38:30;11.07;;;2.00;;
4278;SDS011;2153;47.744;10.580;2023-08-06T04:40:56;12.47;;;2.40;;
4278;SDS011;2153;47.744;10.580;2023-08-06T04:43:24;12.40;;;2.50;;
4278;SDS011;2153;47.744;10.580;2023-08-06T04:45:53;11.60;;;2.00;;
4278;SDS011;2153;47.744;10.580;2023-08-06T04:48:20;15.03;;;3.40;;
4278;SDS011;2153;47.744;10.580;2023-08-06T04:50:47;12.67;;;2.53;;
4278;SDS011;2153;47.744;10.580;2023-08-06T04:53:15;12.17;;;2.50;;
4278;SDS011;2153;47.744;10.580;2023-08-06T04:55:42;20.30;;;2.40;;
4278;SDS011;2153;47.744;10.580;2023-08-06T04:58:09;11.27;;;1.80;;
4278;SDS011;2153;47.744;10.580;2023-08-06T05:00:36;12.50;;;2.43;;
4278;SDS011;2153;47.744;10.580;2023-08-06T05:03:05;13.83;;;2.20;;
4278;SDS011;2153;47.744;10.580;2023-08-06T05:05:32;12.30;;;2.30;;
4278;SDS011;2153;47.744;10.580;2023-08-06T05:07:59;11.13;;;1.87;;
4278;SDS011;2153;47.744;10.580;2023-08-06T05:10:25;11.47;;;2.00;;
4278;SDS011;2153;47.744;10.580;2023-08-06T05:12:52;11.23;;;1.80;;
4278;SDS011;2153;47.744;10.580;2023-08-06T05:15:19;11.50;;;2.10;;
4278;SDS011;2153;47.744;10.580;2023-08-06T05:17:46;13.40;;;2.27;;
4278;SDS011;2153;47.744;10.580;2023-08-06T05:20:14;11.63;;;2.00;;
4278;SDS011;2153;47.744;10.580;2023-08-06T05:22:42;12.13;;;2.03;;
4278;SDS011;2153;47.744;10.580;2023-08-06T05:25:12;12.37;;;2.30;;
4278;SDS011;2153;47.744;10.580;2023-08-06T05:27:39;11.83;;;2.07;;
4278;SDS011;2153;47.744;10.580;2023-08-06T05:30:06;11.93;;;2.10;;
4278;SDS011;2153;47.744;10.580;2023-08-06T05:32:34;12.87;;;2.00;;
4278;SDS011;2153;47.744;10.580;2023-08-06T05:35:01;13.23;;;1.80;;
4278;SDS011;2153;47.744;10.580;2023-08-06T05:37:29;11.10;;;1.70;;
4278;SDS011;2153;47.744;10.580;2023-08-06T05:39:55;12.80;;;1.87;;
4278;SDS011;2153;47.744;10.580;2023-08-06T05:42:22;10.77;;;1.80;;
4278;SDS011;2153;47.744;10.580;2023-08-06T05:44:49;13.80;;;1.63;;
4278;SDS011;2153;47.744;10.580;2023-08-06T05:47:15;12.07;;;1.93;;
4278;SDS011;2153;47.744;10.580;2023-08-06T05:49:42;12.40;;;2.07;;
4278;SDS011;2153;47.744;10.580;2023-08-06T05:52:09;13.43;;;2.10;;
4278;SDS011;2153;47.744;10.580;2023-08-06T05:54:37;14.73;;;2.07;;
4278;SDS011;2153;47.744;10.580;2023-08-06T05:57:05;12.20;;;2.00;;
4278;SDS011;2153;47.744;10.580;2023-08-06T05:59:32;12.70;;;2.33;;
4278;SDS011;2153;47.744;10.580;2023-08-06T06:01:59;11.87;;;2.20;;
4278;SDS011;2153;47.744;10.580;2023-08-06T06:04:25;11.20;;;1.80;;
4278;SDS011;2153;47.744;10.580;2023-08-06T06:06:52;11.60;;;1.80;;
4278;SDS011;2153;47.744;10.580;2023-08-06T06:09:19;14.33;;;1.83;;
4278;SDS011;2153;47.744;10.580;2023-08-06T06:11:47;11.80;;;2.20;;
4278;SDS011;2153;47.744;10.580;2023-08-06T06:14:15;13.53;;;1.60;;
4278;SDS011;2153;47.744;10.580;2023-08-06T06:16:41;11.87;;;1.80;;
4278;SDS011;2153;47.744;10.580;2023-08-06T06:19:08;10.50;;;1.40;;
4278;SDS011;2153;47.744;10.580;2023-08-06T06:21:35;11.13;;;1.50;;
4278;SDS011;2153;47.744;10.580;2023-08-06T06:24:03;14.63;;;2.43;;
4278;SDS011;2153;47.744;10.580;2023-08-06T06:26:30;11.47;;;1.77;;
4278;SDS011;2153;47.744;10.580;2023-08-06T06:28:58;11.60;;;1.80;;
4278;SDS011;2153;47.744;10.580;2023-08-06T06:31:25;11.03;;;1.73;;
4278;SDS011;2153;47.744;10.580;2023-08-06T06:33:51;10.53;;;1.40;;
4278;SDS011;2153;47.744;10.580;2023-08-06T06:36:19;16.27;;;2.40;;
4278;SDS011;2153;47.744;10.580;2023-08-06T06:38:46;12.03;;;1.83;;
4278;SDS011;2153;47.744;10.580;2023-08-06T06:41:13;10.83;;;1.50;;
4278;SDS011;2153;47.744;10.580;2023-08-06T06:43:39;11.83;;;1.50;;
4278;SDS011;2153;47.744;10.580;2023-08-06T06:46:08;12.70;;;1.50;;
4278;SDS011;2153;47.744;10.580;2023-08-06T06:48:35;11.77;;;1.20;;
4278;SDS011;2153;47.744;10.580;2023-08-06T06:51:01;11.67;;;1.20;;
4278;SDS011;2153;47.744;10.580;2023-08-06T06:53:29;10.07;;;1.00;;
4278;SDS011;2153;47.744;10.580;2023-08-06T06:55:55;11.13;;;1.10;;
4278;SDS011;2153;47.744;10.580;2023-08-06T06:58:22;11.17;;;1.00;;
4278;SDS011;2153;47.744;10.580;2023-08-06T07:00:49;10.60;;;1.10;;
4278;SDS011;2153;47.744;10.580;2023-08-06T07:03:17;12.60;;;1.07;;
4278;SDS011;2153;47.744;10.580;2023-08-06T07:05:45;10.57;;;0.97;;
4278;SDS011;2153;47.744;10.580;2023-08-06T07:08:12;10.90;;;1.40;;
4278;SDS011;2153;47.744;10.580;2023-08-06T07:10:40;11.03;;;1.53;;
4278;SDS011;2153;47.744;10.580;2023-08-06T07:13:07;10.30;;;0.93;;
4278;SDS011;2153;47.744;10.580;2023-08-06T07:15:34;10.20;;;0.93;;
4278;SDS011;2153;47.744;10.580;2023-08-06T07:18:01;11.80;;;1.20;;
4278;SDS011;2153;47.744;10.580;2023-08-06T07:20:29;12.30;;;1.10;;
4278;SDS011;2153;47.744;10.580;2023-08-06T07:22:58;10.10;;;0.70;;
4278;SDS011;2153;47.744;10.580;2023-08-06T07:25:24;15.07;;;1.10;;
4278;SDS011;2153;47.744;10.580;2023-08-06T07:27:51;13.53;;;1.00;;
4278;SDS011;2153;47.744;10.580;2023-08-06T07:30:18;10.30;;;0.80;;
4278;SDS011;2153;47.744;10.580;2023-08-06T07:32:44;9.90;;;0.73;;
4278;SDS011;2153;47.744;10.580;2023-08-06T07:35:11;10.50;;;0.90;;
4278;SDS011;2153;47.744;10.580;2023-08-06T07:37:40;13.33;;;1.33;;
4278;SDS011;2153;47.744;10.580;2023-08-06T07:40:07;10.20;;;0.80;;
4278;SDS011;2153;47.744;10.580;2023-08-06T07:42:35;14.73;;;0.87;;
4278;SDS011;2153;47.744;10.580;2023-08-06T07:45:02;10.13;;;0.70;;
4278;SDS011;2153;47.744;10.580;2023-08-06T07:47:29;10.30;;;0.70;;
4278;SDS011;2153;47.744;10.580;2023-08-06T07:49:56;10.50;;;0.80;;
4278;SDS011;2153;47.744;10.580;2023-08-06T07:52:22;10.70;;;0.70;;
4278;SDS011;2153;47.744;10.580;2023-08-06T07:54:50;11.10;;;0.70;;
4278;SDS011;2153;47.744;10.580;2023-08-06T07:57:17;11.57;;;0.87;;
4278;SDS011;2153;47.744;10.580;2023-08-06T07:59:44;10.00;;;0.70;;
4278;SDS011;2153;47.744;10.580;2023-08-06T08:02:10;9.80;;;0.70;;
4278;SDS011;2153;47.744;10.580;2023-08-06T08:04:37;9.77;;;0.70;;
4278;SDS011;2153;47.744;10.580;2023-08-06T08:07:04;10.70;;;0.80;;
4278;SDS011;2153;47.744;10.580;2023-08-06T08:09:31;11.20;;;0.70;;
4278;SDS011;2153;47.744;10.580;2023-08-06T08:11:59;11.13;;;0.70;;
4278;SDS011;2153;47.744;10.580;2023-08-06T08:14:27;10.00;;;0.60;;
4278;SDS011;2153;47.744;10.580;2023-08-06T08:16:58;11.43;;;0.70;;
4278;SDS011;2153;47.744;10.580;2023-08-06T08:19:25;11.43;;;0.90;;
4278;SDS011;2153;47.744;10.580;2023-08-06T08:21:53;10.50;;;0.90;;
4278;SDS011;2153;47.744;10.580;2023-08-06T08:24:20;14.20;;;0.73;;
4278;SDS011;2153;47.744;10.580;2023-08-06T08:26:48;11.10;;;0.90;;
4278;SDS011;2153;47.744;10.580;2023-08-06T08:29:17;10.97;;;0.73;;
4278;SDS011;2153;47.744;10.580;2023-08-06T08:31:43;10.87;;;1.07;;
4278;SDS011;2153;47.744;10.580;2023-08-06T08:34:10;9.87;;;0.73;;
4278;SDS011;2153;47.744;10.580;2023-08-06T08:36:37;10.40;;;0.90;;
4278;SDS011;2153;47.744;10.580;2023-08-06T08:39:03;10.07;;;0.63;;
4278;SDS011;2153;47.744;10.580;2023-08-06T08:41:31;9.90;;;0.80;;
4278;SDS011;2153;47.744;10.580;2023-08-06T08:43:58;11.57;;;0.80;;
4278;SDS011;2153;47.744;10.580;2023-08-06T08:46:27;10.10;;;0.77;;
4278;SDS011;2153;47.744;10.580;2023-08-06T08:48:56;11.47;;;0.90;;
4278;SDS011;2153;47.744;10.580;2023-08-06T08:51:25;10.57;;;0.70;;
4278;SDS011;2153;47.744;10.580;2023-08-06T08:53:53;10.70;;;0.73;;
4278;SDS011;2153;47.744;10.580;2023-08-06T08:56:22;11.57;;;0.90;;
4278;SDS011;2153;47.744;10.580;2023-08-06T08:58:49;10.50;;;1.10;;
4278;SDS011;2153;47.744;10.580;2023-08-06T09:01:18;12.10;;;0.90;;
4278;SDS011;2153;47.744;10.580;2023-08-06T09:03:46;11.00;;;0.80;;
4278;SDS011;2153;47.744;10.580;2023-08-06T09:06:13;10.07;;;0.63;;
4278;SDS011;2153;47.744;10.580;2023-08-06T09:08:41;9.77;;;0.60;;
4278;SDS011;2153;47.744;10.580;2023-08-06T09:11:13;11.53;;;0.90;;
4278;SDS011;2153;47.744;10.580;2023-08-06T09:13:40;12.77;;;0.77;;
4278;SDS011;2153;47.744;10.580;2023-08-06T09:16:07;11.30;;;0.80;;
4278;SDS011;2153;47.744;10.580;2023-08-06T09:18:34;10.10;;;0.80;;
4278;SDS011;2153;47.744;10.580;2023-08-06T09:21:02;10.30;;;0.80;;
4278;SDS011;2153;47.744;10.580;2023-08-06T09:23:28;9.67;;;0.63;;
4278;SDS011;2153;47.744;10.580;2023-08-06T09:25:56;11.00;;;0.80;;
4278;SDS011;2153;47.744;10.580;2023-08-06T09:28:23;10.10;;;0.90;;
4278;SDS011;2153;47.744;10.580;2023-08-06T09:30:50;9.90;;;0.63;;
4278;SDS011;2153;47.744;10.580;2023-08-06T09:33:20;10.33;;;0.70;;
4278;SDS011;2153;47.744;10.580;2023-08-06T09:35:48;10.60;;;0.87;;
4278;SDS011;2153;47.744;10.580;2023-08-06T09:38:16;10.10;;;0.73;;
4278;SDS011;2153;47.744;10.580;2023-08-06T09:40:43;9.97;;;0.80;;
4278;SDS011;2153;47.744;10.580;2023-08-06T09:43:10;12.97;;;0.90;;
4278;SDS011;2153;47.744;10.580;2023-08-06T09:45:38;9.87;;;0.77;;
4278;SDS011;2153;47.744;10.580;2023-08-06T09:48:05;11.33;;;0.90;;
4278;SDS011;2153;47.744;10.580;2023-08-06T09:50:34;9.77;;;0.60;;
4278;SDS011;2153;47.744;10.580;2023-08-06T09:53:03;9.80;;;0.80;;
4278;SDS011;2153;47.744;10.580;2023-08-06T09:55:32;10.97;;;0.80;;
4278;SDS011;2153;47.744;10.580;2023-08-06T09:58:00;10.53;;;0.70;;
4278;SDS011;2153;47.744;10.580;2023-08-06T10:00:27;9.77;;;0.70;;
4278;SDS011;2153;47.744;10.580;2023-08-06T10:02:59;9.73;;;0.60;;
4278;SDS011;2153;47.744;10.580;2023-08-06T10:05:26;10.40;;;0.70;;
4278;SDS011;2153;47.744;10.580;2023-08-06T10:07:53;9.70;;;0.63;;
4278;SDS011;2153;47.744;10.580;2023-08-06T10:10:21;9.67;;;0.70;;
4278;SDS011;2153;47.744;10.580;2023-08-06T10:12:52;10.10;;;0.80;;
4278;SDS011;2153;47.744;10.580;2023-08-06T10:15:22;11.63;;;0.80;;
4278;SDS011;2153;47.744;10.580;2023-08-06T10:17:53;9.77;;;0.70;;
4278;SDS011;2153;47.744;10.580;2023-08-06T10:20:22;11.80;;;0.70;;
4278;SDS011;2153;47.744;10.580;2023-08-06T10:22:59;10.07;;;0.90;;
4278;SDS011;2153;47.744;10.580;2023-08-06T10:25:30;10.13;;;0.73;;
4278;SDS011;2153;47.744;10.580;2023-08-06T10:28:00;12.37;;;1.20;;
4278;SDS011;2153;47.744;10.580;2023-08-06T10:30:32;12.60;;;1.97;;
4278;SDS011;2153;47.744;10.580;2023-08-06T10:33:01;11.87;;;2.00;;
4278;SDS011;2153;47.744;10.580;2023-08-06T10:35:30;11.00;;;1.37;;
4278;SDS011;2153;47.744;10.580;2023-08-06T10:37:58;13.30;;;1.90;;
4278;SDS011;2153;47.744;10.580;2023-08-06T10:40:26;17.63;;;3.40;;
4278;SDS011;2153;47.744;10.580;2023-08-06T10:42:54;11.30;;;1.70;;
4278;SDS011;2153;47.744;10.580;2023-08-06T10:45:22;14.17;;;2.83;;
4278;SDS011;2153;47.744;10.580;2023-08-06T10:47:53;15.00;;;1.67;;
4278;SDS011;2153;47.744;10.580;2023-08-06T10:50:21;10.00;;;0.80;;
4278;SDS011;2153;47.744;10.580;2023-08-06T10:52:48;12.07;;;1.40;;
4278;SDS011;2153;47.744;10.580;2023-08-06T10:55:21;10.90;;;0.90;;
4278;SDS011;2153;47.744;10.580;2023-08-06T10:57:49;10.03;;;0.90;;
4278;SDS011;2153;47.744;10.580;2023-08-06T11:00:15;11.80;;;0.80;;
4278;SDS011;2153;47.744;10.580;2023-08-06T11:02:43;9.97;;;0.63;;
4278;SDS011;2153;47.744;10.580;2023-08-06T11:05:12;10.00;;;0.70;;
4278;SDS011;2153;47.744;10.580;2023-08-06T11:07:39;9.47;;;0.50;;
4278;SDS011;2153;47.744;10.580;2023-08-06T11:10:06;10.03;;;0.80;;
4278;SDS011;2153;47.744;10.580;2023-08-06T11:12:34;9.87;;;0.70;;
4278;SDS011;2153;47.744;10.580;2023-08-06T11:15:01;9.83;;;0.70;;
4278;SDS011;2153;47.744;10.580;2023-08-06T11:17:30;9.73;;;0.70;;
4278;SDS011;2153;47.744;10.580;2023-08-06T11:20:00;9.77;;;0.80;;
4278;SDS011;2153;47.744;10.580;2023-08-06T11:22:27;10.87;;;0.60;;
4278;SDS011;2153;47.744;10.580;2023-08-06T11:24:55;10.00;;;0.77;;
4278;SDS011;2153;47.744;10.580;2023-08-06T11:27:22;9.60;;;0.67;;
4278;SDS011;2153;47.744;10.580;2023-08-06T11:29:49;9.80;;;0.70;;
4278;SDS011;2153;47.744;10.580;2023-08-06T11:32:15;9.80;;;0.70;;
4278;SDS011;2153;47.744;10.580;2023-08-06T11:34:42;10.00;;;0.70;;
4278;SDS011;2153;47.744;10.580;2023-08-06T11:37:11;9.87;;;0.83;;
4278;SDS011;2153;47.744;10.580;2023-08-06T11:39:38;10.83;;;0.90;;
4278;SDS011;2153;47.744;10.580;2023-08-06T11:42:10;9.67;;;0.70;;
4278;SDS011;2153;47.744;10.580;2023-08-06T11:44:40;9.60;;;0.70;;
4278;SDS011;2153;47.744;10.580;2023-08-06T11:47:12;9.77;;;0.70;;
4278;SDS011;2153;47.744;10.580;2023-08-06T11:49:43;10.10;;;0.80;;
4278;SDS011;2153;47.744;10.580;2023-08-06T11:52:14;9.57;;;0.67;;
4278;SDS011;2153;47.744;10.580;2023-08-06T11:54:45;10.10;;;0.70;;
4278;SDS011;2153;47.744;10.580;2023-08-06T11:57:12;9.67;;;0.80;;
4278;SDS011;2153;47.744;10.580;2023-08-06T11:59:39;9.93;;;0.60;;
4278;SDS011;2153;47.744;10.580;2023-08-06T12:02:07;9.70;;;0.70;;
4278;SDS011;2153;47.744;10.580;2023-08-06T12:07:27;9.60;;;0.60;;
4278;SDS011;2153;47.744;10.580;2023-08-06T12:09:55;10.50;;;0.60;;
4278;SDS011;2153;47.744;10.580;2023-08-06T12:12:22;10.80;;;0.60;;
4278;SDS011;2153;47.744;10.580;2023-08-06T12:14:49;9.73;;;0.60;;
4278;SDS011;2153;47.744;10.580;2023-08-06T12:17:15;9.53;;;0.60;;
4278;SDS011;2153;47.744;10.580;2023-08-06T12:19:44;10.30;;;0.53;;
4278;SDS011;2153;47.744;10.580;2023-08-06T12:22:11;9.73;;;0.63;;
4278;SDS011;2153;47.744;10.580;2023-08-06T12:24:39;9.67;;;0.60;;
4278;SDS011;2153;47.744;10.580;2023-08-06T12:27:06;9.77;;;0.70;;
4278;SDS011;2153;47.744;10.580;2023-08-06T12:29:33;10.47;;;0.93;;
4278;SDS011;2153;47.744;10.580;2023-08-06T12:32:00;9.53;;;0.50;;
4278;SDS011;2153;47.744;10.580;2023-08-06T12:34:27;10.00;;;0.60;;
4278;SDS011;2153;47.744;10.580;2023-08-06T12:36:53;9.70;;;0.60;;
4278;SDS011;2153;47.744;10.580;2023-08-06T12:39:20;9.53;;;0.60;;
4278;SDS011;2153;47.744;10.580;2023-08-06T12:41:48;9.90;;;0.80;;
4278;SDS011;2153;47.744;10.580;2023-08-06T12:44:15;10.67;;;0.70;;
4278;SDS011;2153;47.744;10.580;2023-08-06T12:46:42;9.57;;;0.50;;
4278;SDS011;2153;47.744;10.580;2023-08-06T12:49:09;9.73;;;0.70;;
4278;SDS011;2153;47.744;10.580;2023-08-06T12:51:35;12.10;;;0.80;;
4278;SDS011;2153;47.744;10.580;2023-08-06T12:54:02;9.70;;;0.70;;
4278;SDS011;2153;47.744;10.580;2023-08-06T12:56:29;9.80;;;0.80;;
4278;SDS011;2153;47.744;10.580;2023-08-06T12:58:57;9.73;;;0.70;;
4278;SDS011;2153;47.744;10.580;2023-08-06T13:01:23;9.73;;;0.70;;
4278;SDS011;2153;47.744;10.580;2023-08-06T13:03:50;10.70;;;0.80;;
4278;SDS011;2153;47.744;10.580;2023-08-06T13:06:17;9.70;;;0.70;;
4278;SDS011;2153;47.744;10.580;2023-08-06T13:08:43;9.50;;;0.70;;
4278;SDS011;2153;47.744;10.580;2023-08-06T13:11:10;9.60;;;0.67;;
4278;SDS011;2153;47.744;10.580;2023-08-06T13:13:37;10.00;;;0.70;;
4278;SDS011;2153;47.744;10.580;2023-08-06T13:16:05;9.53;;;0.60;;
4278;SDS011;2153;47.744;10.580;2023-08-06T13:18:31;9.90;;;0.70;;
4278;SDS011;2153;47.744;10.580;2023-08-06T13:20:58;9.70;;;0.70;;
4278;SDS011;2153;47.744;10.580;2023-08-06T13:23:25;9.87;;;0.70;;
4278;SDS011;2153;47.744;10.580;2023-08-06T13:25:51;12.40;;;0.67;;
4278;SDS011;2153;47.744;10.580;2023-08-06T13:28:19;9.57;;;0.67;;
4278;SDS011;2153;47.744;10.580;2023-08-06T13:30:45;9.53;;;0.60;;
4278;SDS011;2153;47.744;10.580;2023-08-06T13:33:14;9.57;;;0.67;;
4278;SDS011;2153;47.744;10.580;2023-08-06T13:35:40;9.63;;;0.70;;
4278;SDS011;2153;47.744;10.580;2023-08-06T13:38:07;9.60;;;0.60;;
4278;SDS011;2153;47.744;10.580;2023-08-06T13:40:35;10.40;;;0.60;;
4278;SDS011;2153;47.744;10.580;2023-08-06T13:43:01;10.03;;;0.90;;
4278;SDS011;2153;47.744;10.580;2023-08-06T13:45:28;10.60;;;0.63;;
4278;SDS011;2153;47.744;10.580;2023-08-06T13:47:56;9.63;;;0.60;;
4278;SDS011;2153;47.744;10.580;2023-08-06T13:50:24;9.77;;;0.70;;
4278;SDS011;2153;47.744;10.580;2023-08-06T13:52:52;10.07;;;0.80;;
4278;SDS011;2153;47.744;10.580;2023-08-06T13:55:20;10.77;;;0.60;;
4278;SDS011;2153;47.744;10.580;2023-08-06T13:57:47;9.83;;;0.80;;
4278;SDS011;2153;47.744;10.580;2023-08-06T14:00:14;9.50;;;0.60;;
4278;SDS011;2153;47.744;10.580;2023-08-06T14:02:41;12.53;;;0.60;;
4278;SDS011;2153;47.744;10.580;2023-08-06T14:05:08;9.83;;;0.70;;
4278;SDS011;2153;47.744;10.580;2023-08-06T14:07:37;9.57;;;0.60;;
4278;SDS011;2153;47.744;10.580;2023-08-06T14:10:04;9.57;;;0.70;;
4278;SDS011;2153;47.744;10.580;2023-08-06T14:12:31;11.17;;;1.20;;
4278;SDS011;2153;47.744;10.580;2023-08-06T14:14:58;10.13;;;0.77;;
4278;SDS011;2153;47.744;10.580;2023-08-06T14:17:25;9.67;;;0.73;;
4278;SDS011;2153;47.744;10.580;2023-08-06T14:19:52;9.60;;;0.70;;
4278;SDS011;2153;47.744;10.580;2023-08-06T14:22:19;9.60;;;0.63;;
4278;SDS011;2153;47.744;10.580;2023-08-06T14:24:47;9.43;;;0.60;;
4278;SDS011;2153;47.744;10.580;2023-08-06T14:27:13;9.43;;;0.60;;
4278;SDS011;2153;47.744;10.580;2023-08-06T14:29:40;10.00;;;0.80;;
4278;SDS011;2153;47.744;10.580;2023-08-06T14:32:07;10.30;;;0.80;;
4278;SDS011;2153;47.744;10.580;2023-08-06T14:34:33;9.37;;;0.70;;
4278;SDS011;2153;47.744;10.580;2023-08-06T14:37:00;9.80;;;0.90;;
4278;SDS011;2153;47.744;10.580;2023-08-06T14:39:27;11.60;;;1.00;;
4278;SDS011;2153;47.744;10.580;2023-08-06T14:41:55;9.80;;;0.70;;
4278;SDS011;2153;47.744;10.580;2023-08-06T14:44:22;9.90;;;0.90;;
4278;SDS011;2153;47.744;10.580;2023-08-06T14:46:48;9.70;;;0.80;;
4278;SDS011;2153;47.744;10.580;2023-08-06T14:49:15;9.77;;;0.80;;
4278;SDS011;2153;47.744;10.580;2023-08-06T14:51:42;12.90;;;0.83;;
4278;SDS011;2153;47.744;10.580;2023-08-06T14:54:08;9.57;;;0.63;;
4278;SDS011;2153;47.744;10.580;2023-08-06T14:56:35;9.53;;;0.70;;